Flight Track Log - Related Links

Times and Time Zones

All times are in EDT time to prevent confusion due to time zone crossing. See the N960DL flight status page for this flight to view local times or setup timezone preferences in your user account.

Time Position Orientation Groundspeed Altitude Reporting Facility
EDT Latitude Longitude Course Direction KTS MPH feet Rate Location/Type
Tue 03:45:53 PM 33.6500 -84.4000 342° North 161 185 2,100  Level Atlanta TRACON
Tue 03:46:59 PM 33.6500 -84.3167 90° East 254 292 4,300 2,667 Climbing Atlanta TRACON
Tue 03:47:59 PM 33.6833 -84.2333 64° Northeast 282 325 7,700 2,826 Climbing Atlanta TRACON
Tue 03:48:00 PM 33.8650 -84.5667 North  Level FlightAware Approximate
Tue 03:49:00 PM 33.9660 -84.5996 342° North  Level FlightAware Approximate
Tue 03:49:00 PM 33.7333 -84.1833 40° Northeast 305 351 10,000  Level Atlanta TRACON
Tue 03:49:54 PM 33.8167 -84.1833 360° North 295 339 10,000 50 Level Atlanta TRACON
Tue 03:50:00 PM 34.0661 -84.6396 342° North  Level FlightAware Approximate
Tue 03:51:00 PM 34.1661 -84.6797 342° North  Level FlightAware Approximate
Tue 03:51:00 PM 33.9000 -84.2333 334° Northwest 330 380 10,100  Level Atlanta TRACON
Tue 03:52:53 PM 34.0294 -84.4047 312° West 380 437 15,200 2,636 Climbing Atlanta Center
Tue 03:53:53 PM 34.1022 -84.5078 310° West 388 447 17,700 2,550 Climbing Atlanta Center
Tue 03:54:53 PM 34.1750 -84.6039 312° West 419 482 20,300 2,400 Climbing Atlanta Center
Tue 03:55:53 PM 34.2578 -84.7125 313° West 429 494 22,500 1,850 Climbing Atlanta Center
Tue 03:56:53 PM 34.3658 -84.7989 327° Northwest 424 488 24,000 750 Climbing Atlanta Center
Tue 03:57:53 PM 34.4678 -84.8753 328° Northwest 429 494 24,000  Level Atlanta Center
Tue 03:58:53 PM 34.5547 -84.9392 329° Northwest 399 459 24,000  Level Atlanta Center
Tue 03:59:53 PM 34.6378 -85.0031 328° Northwest 366 421 24,000  Level Atlanta Center
Tue 04:00:53 PM 34.7083 -85.0569 328° Northwest 349 402 24,000  Level Atlanta Center
Tue 04:01:53 PM 34.7914 -85.1239 327° Northwest 349 402 24,000  Level Atlanta Center
Tue 04:04:22 PM 35.0189 -85.2961 328° Northwest 370 426 24,000  Level Memphis Center
Tue 04:05:22 PM 35.0964 -85.3550 328° Northwest 375 432 24,000  Level Memphis Center
Tue 04:06:22 PM 35.1806 -85.4311 324° Northwest 375 432 24,000  Level Memphis Center
Tue 04:07:22 PM 35.2508 -85.5211 314° West 370 426 24,000  Level Memphis Center
Tue 04:08:22 PM 35.3192 -85.6114 313° West 370 426 24,000 -300 Level Memphis Center
Tue 04:09:22 PM 35.3892 -85.6989 314° West 365 420 23,400 -1,100 Descending Memphis Center
Tue 04:10:22 PM 35.4550 -85.7894 312° West 359 413 21,800 300 Descending Memphis Center
Tue 04:11:22 PM 35.5272 -85.8800 314° West 359 413 24,000 -2,000 Climbing Memphis Center
Tue 04:12:22 PM 35.5994 -85.9783 312° West 365 420 17,800 -4,200 Descending Memphis Center
Tue 04:13:22 PM 35.6761 -86.0789 313° West 375 432 15,600 -2,000 Descending Memphis Center
Tue 04:14:22 PM 35.7439 -86.1700 313° West 370 426 13,800 -1,650 Descending Memphis Center
Tue 04:15:22 PM 35.7983 -86.2442 312° West 357 411 12,300 -1,500 Descending Memphis Center
Tue 04:16:22 PM 35.8550 -86.3181 313° West 315 362 10,800 -1,450 Descending Memphis Center
Tue 04:17:22 PM 35.9094 -86.3897 313° West 295 339 9,400 -1,400 Descending Memphis Center
Tue 04:18:22 PM 35.9617 -86.4589 313° West 282 325 8,000 -1,300 Descending Memphis Center
Tue 04:19:22 PM 36.0097 -86.5261 311° West 272 313 6,800 -1,350 Descending Memphis Center
Tue 04:20:22 PM 36.0614 -86.5800 320° Northwest 251 289 5,300 -1,100 Descending Memphis Center
Tue 04:21:22 PM 36.1317 -86.5589 14° North 215 247 4,600 -550 Descending Memphis Center
Tue 04:22:22 PM 36.1953 -86.5275 22° Northeast 229 264 4,200 -400 Descending Memphis Center
Tue 04:23:22 PM 36.2550 -86.5017 19° North 234 269 3,800 -600 Descending Memphis Center
Tue 04:24:22 PM 36.2933 -86.5281 331° Northwest 170 196 3,000 -513 Descending Memphis Center
Tue 04:26:41 PM 36.2500 -86.6333 243° Southwest 161 185 2,100 -388 Descending Nashville TRACON

Login

Don't have an account? Register now (free) for customized features, flight alerts, and more!